createdAt,value
2018-08-20T00:00:59.667Z,85.86
2018-08-20T00:03:28.731Z,86.90
2018-08-20T00:05:57.789Z,86.03
2018-08-20T00:08:26.857Z,85.42
2018-08-20T00:10:55.912Z,85.49
2018-08-20T00:13:25.941Z,84.76
2018-08-20T00:15:55.031Z,84.77
2018-08-20T00:18:24.081Z,84.97
2018-08-20T00:20:55.063Z,84.91
2018-08-20T00:23:25.012Z,84.71
2018-08-20T00:25:54.074Z,84.58
2018-08-20T00:30:59.409Z,85.37
2018-08-20T00:33:28.473Z,85.93
2018-08-20T00:38:33.321Z,86.29
2018-08-20T00:41:02.409Z,86.46
2018-08-20T00:43:31.467Z,86.28
2018-08-20T00:46:01.595Z,86.66
2018-08-20T00:51:06.542Z,86.99
2018-08-20T00:53:35.603Z,87.60
2018-08-20T00:58:41.445Z,87.66
2018-08-20T01:01:10.503Z,87.44
2018-08-20T01:03:39.550Z,88.15
2018-08-20T01:06:08.618Z,87.69
2018-08-20T01:08:37.674Z,86.12
2018-08-20T01:13:42.436Z,87.11
2018-08-20T01:16:11.502Z,87.39
2018-08-20T01:18:40.625Z,87.37
2018-08-20T01:21:09.715Z,87.16
2018-08-20T01:23:38.795Z,87.39
2018-08-20T01:26:07.845Z,87.57
2018-08-20T01:28:36.971Z,87.30
2018-08-20T01:31:07.012Z,86.90
2018-08-20T01:33:36.074Z,86.91
2018-08-20T01:36:05.186Z,87.15
2018-08-20T01:38:34.243Z,87.23
2018-08-20T01:41:03.305Z,87.51
2018-08-20T01:43:32.482Z,87.78
2018-08-20T01:46:01.529Z,87.88
2018-08-20T01:48:30.699Z,87.71
2018-08-20T01:53:35.521Z,87.52
2018-08-20T01:56:04.591Z,87.24
2018-08-20T02:03:45.316Z,86.26
2018-08-20T02:06:14.439Z,87.07
2018-08-20T02:08:43.487Z,87.95
2018-08-20T02:14:08.479Z,87.75
2018-08-20T02:16:38.511Z,87.40
2018-08-20T02:19:07.569Z,87.06
2018-08-20T02:21:36.745Z,87.24
2018-08-20T02:26:42.573Z,86.65
2018-08-20T02:29:12.601Z,88.17
2018-08-20T02:31:42.626Z,88.74
2018-08-20T02:34:11.678Z,89.43
2018-08-20T02:36:40.737Z,89.53
2018-08-20T02:41:45.645Z,88.53
2018-08-20T02:44:16.705Z,89.46
2018-08-20T02:49:21.546Z,89.24
2018-08-20T02:51:51.918Z,88.92
2018-08-20T02:54:20.989Z,89.33
2018-08-20T02:56:50.037Z,89.59
2018-08-20T02:59:19.099Z,90.60
2018-08-20T03:01:49.104Z,91.34
2018-08-20T03:04:18.173Z,90.31
2018-08-20T03:06:47.257Z,90.39
2018-08-20T03:09:16.337Z,90.56
2018-08-20T03:11:45.399Z,90.53
2018-08-20T03:14:14.585Z,90.54
2018-08-20T03:16:43.640Z,90.83
2018-08-20T03:21:48.479Z,90.51
2018-08-20T03:24:17.740Z,89.95
2018-08-20T03:26:46.772Z,89.75
2018-08-20T03:29:15.844Z,90.05
2018-08-20T03:34:20.640Z,90.92
2018-08-20T03:36:49.828Z,91.10
2018-08-20T03:39:18.878Z,91.72
2018-08-20T03:41:47.947Z,91.78
2018-08-20T03:44:17.313Z,91.45
2018-08-20T03:46:46.378Z,90.48
2018-08-20T03:49:15.425Z,91.50
2018-08-20T03:51:45.485Z,90.94
2018-08-20T03:54:15.437Z,90.67
2018-08-20T03:59:20.227Z,91.65
2018-08-20T04:01:50.526Z,91.30
2018-08-20T04:04:20.461Z,91.59
2018-08-20T04:06:49.514Z,91.86
2018-08-20T04:09:18.863Z,92.51
2018-08-20T04:11:47.918Z,92.81
2018-08-20T04:14:17.955Z,93.00
2018-08-20T04:16:47.021Z,93.10
2018-08-20T04:19:16.085Z,93.23
2018-08-20T04:21:45.142Z,92.60
2018-08-20T04:24:14.215Z,92.52
2018-08-20T04:26:43.280Z,92.52
2018-08-20T04:29:12.360Z,91.93
2018-08-20T04:34:17.134Z,92.55
2018-08-20T04:36:46.198Z,92.82
2018-08-20T04:41:50.999Z,92.40
2018-08-20T04:44:20.991Z,92.25
2018-08-20T04:46:50.178Z,91.95
2018-08-20T04:51:56.881Z,91.06
2018-08-20T04:54:25.935Z,90.66
2018-08-20T04:56:54.985Z,90.16
2018-08-20T04:59:24.058Z,89.79
2018-08-20T05:04:28.879Z,89.27
2018-08-20T05:06:59.893Z,88.80
2018-08-20T05:12:04.738Z,88.27
2018-08-20T05:17:09.596Z,87.11
2018-08-20T05:22:15.342Z,87.34
2018-08-20T05:24:44.654Z,87.00
2018-08-20T05:27:13.706Z,87.17
2018-08-20T05:29:42.781Z,87.49
2018-08-20T05:32:11.894Z,87.41
2018-08-20T05:34:40.937Z,87.52
2018-08-20T05:37:10.001Z,87.38
2018-08-20T05:39:40.056Z,87.25
2018-08-20T05:47:20.694Z,85.84
2018-08-20T05:52:25.569Z,85.13
2018-08-20T05:57:30.553Z,83.79
2018-08-20T05:59:59.593Z,83.30
2018-08-20T06:05:05.452Z,82.29
2018-08-20T06:07:34.505Z,81.73
2018-08-20T06:10:03.623Z,81.71
2018-08-20T06:12:32.676Z,81.29
2018-08-20T06:15:01.743Z,80.66
2018-08-20T06:17:31.786Z,79.50
2018-08-20T06:22:36.704Z,75.26
2018-08-20T06:25:05.729Z,74.96
2018-08-20T06:27:34.773Z,74.57
2018-08-20T06:30:03.830Z,73.03
2018-08-20T06:35:08.698Z,73.49
2018-08-20T06:37:37.762Z,72.48
2018-08-20T06:40:07.069Z,70.24
2018-08-20T06:42:36.113Z,70.07
2018-08-20T06:45:05.164Z,72.48
2018-08-20T06:47:34.229Z,70.30
2018-08-20T06:50:03.277Z,71.01
2018-08-20T06:52:32.374Z,68.09
2018-08-20T06:55:01.383Z,67.19
2018-08-20T06:57:30.465Z,67.54
2018-08-20T06:59:59.503Z,66.81
2018-08-20T07:02:28.556Z,65.87
2018-08-20T07:05:01.218Z,65.49
2018-08-20T07:07:30.273Z,66.12
2018-08-20T07:09:59.329Z,62.56
2018-08-20T07:12:28.397Z,64.00
2018-08-20T07:14:57.591Z,63.72
2018-08-20T07:17:26.711Z,63.85
2018-08-20T07:22:31.530Z,60.74
2018-08-20T07:25:01.525Z,59.79
2018-08-20T07:30:06.394Z,59.14
2018-08-20T07:32:35.460Z,58.52
2018-08-20T07:35:04.636Z,58.72
2018-08-20T07:40:09.546Z,56.46
2018-08-20T07:42:40.588Z,52.63
2018-08-20T07:45:10.582Z,52.46
2018-08-20T07:47:39.641Z,51.67
2018-08-20T07:50:08.696Z,53.68
2018-08-20T07:52:38.025Z,52.50
2018-08-20T07:55:07.081Z,51.12
2018-08-20T08:00:11.961Z,51.58
2018-08-20T08:02:41.984Z,49.83
2018-08-20T08:05:11.030Z,49.21
2018-08-20T08:07:40.081Z,49.30
2018-08-20T08:10:11.127Z,50.79
2018-08-20T08:12:40.217Z,50.59
2018-08-20T08:15:09.257Z,50.95
2018-08-20T08:20:14.074Z,48.34
2018-08-20T08:22:44.142Z,50.47
2018-08-20T08:25:13.169Z,48.39
2018-08-20T08:27:42.227Z,49.98
2018-08-20T08:30:11.356Z,49.29
2018-08-20T08:32:40.413Z,48.89
2018-08-20T08:35:09.451Z,45.74
2018-08-20T08:37:38.516Z,47.00
2018-08-20T08:40:11.885Z,48.64
2018-08-20T08:42:44.933Z,47.85
2018-08-20T08:45:16.855Z,46.13
2018-08-20T08:47:46.232Z,46.44
2018-08-20T08:50:15.270Z,46.41
2018-08-20T08:55:20.093Z,46.95
2018-08-20T09:00:25.343Z,44.49
2018-08-20T09:02:54.363Z,42.66
2018-08-20T09:05:23.429Z,42.67
2018-08-20T09:07:52.474Z,40.44
2018-08-20T09:12:58.281Z,36.16
2018-08-20T09:15:27.345Z,34.89
2018-08-20T09:17:56.512Z,31.00
2018-08-20T09:20:25.592Z,32.63
2018-08-20T09:22:54.641Z,31.96
2018-08-20T09:25:23.685Z,30.94
2018-08-20T09:27:52.732Z,29.51
2018-08-20T09:30:21.857Z,30.12
2018-08-20T09:32:51.901Z,27.02
2018-08-20T09:35:20.980Z,28.42
2018-08-20T09:37:50.029Z,25.83
2018-08-20T09:40:19.101Z,28.63
2018-08-20T09:42:48.164Z,30.46
2018-08-20T09:45:17.561Z,32.50
2018-08-20T09:47:46.622Z,30.15
2018-08-20T09:50:15.673Z,30.73
2018-08-20T09:52:44.821Z,27.11
2018-08-20T09:55:13.886Z,27.76
2018-08-20T09:57:42.999Z,25.48
2018-08-20T10:00:12.523Z,25.58
2018-08-20T10:02:41.581Z,24.62
2018-08-20T10:05:10.642Z,24.70
2018-08-20T10:07:40.693Z,24.73
2018-08-20T10:10:09.761Z,22.12
2018-08-20T10:12:38.819Z,24.89
2018-08-20T10:15:07.875Z,25.73
2018-08-20T10:17:36.924Z,24.86
2018-08-20T10:20:05.993Z,27.57
2018-08-20T10:22:35.042Z,24.64
2018-08-20T10:25:04.123Z,24.27
2018-08-20T10:27:33.327Z,22.62
2018-08-20T10:30:03.350Z,24.21
2018-08-20T10:32:32.411Z,24.36
2018-08-20T10:35:01.486Z,24.55
2018-08-20T10:37:30.610Z,22.00
2018-08-20T10:42:35.329Z,22.99
2018-08-20T10:45:04.391Z,22.69
2018-08-20T10:47:33.444Z,20.27
2018-08-20T10:50:02.571Z,20.17
2018-08-20T10:52:31.579Z,21.03
2018-08-20T10:55:00.630Z,23.80
2018-08-20T10:57:29.702Z,26.08
2018-08-20T10:59:58.755Z,24.52
2018-08-20T11:02:27.849Z,21.86
2018-08-20T11:04:56.890Z,23.23
2018-08-20T11:07:25.954Z,21.33
2018-08-20T11:12:30.790Z,21.95
2018-08-20T11:14:59.840Z,21.86
2018-08-20T11:17:28.984Z,22.79
2018-08-20T11:19:58.035Z,20.17
2018-08-20T11:22:27.090Z,19.70
2018-08-20T11:24:56.145Z,19.57
2018-08-20T11:27:27.646Z,20.85
2018-08-20T11:32:32.373Z,21.32
2018-08-20T11:35:01.699Z,18.89
2018-08-20T11:37:30.753Z,19.57
2018-08-20T11:39:59.827Z,19.78
2018-08-20T11:42:28.931Z,19.40
2018-08-20T11:44:57.988Z,21.41
2018-08-20T11:50:06.292Z,19.00
2018-08-20T11:52:35.435Z,18.58
2018-08-20T11:55:04.461Z,18.54
2018-08-20T11:57:33.522Z,18.00
2018-08-20T12:00:02.780Z,18.34
2018-08-20T12:02:31.828Z,18.87
2018-08-20T12:05:00.892Z,18.96
2018-08-20T12:10:05.638Z,19.40
2018-08-20T12:12:34.695Z,22.45
2018-08-20T12:15:03.758Z,19.85
2018-08-20T12:17:32.829Z,19.65
2018-08-20T12:20:01.877Z,21.53
2018-08-20T12:22:31.979Z,22.65
2018-08-20T12:27:36.722Z,22.21
2018-08-20T12:30:05.795Z,20.20
2018-08-20T12:32:34.854Z,17.40
2018-08-20T12:35:03.901Z,18.71
2018-08-20T12:37:33.109Z,20.21
2018-08-20T12:40:02.256Z,20.64
2018-08-20T12:42:31.214Z,19.80
2018-08-20T12:45:00.508Z,20.51
2018-08-20T12:47:29.597Z,18.42
2018-08-20T12:52:34.359Z,25.07
2018-08-20T12:57:39.131Z,27.52
2018-08-20T13:00:08.229Z,27.00
2018-08-20T13:02:37.326Z,29.32
2018-08-20T13:05:06.398Z,26.47
2018-08-20T13:07:35.465Z,23.16
2018-08-20T13:10:04.558Z,21.77
2018-08-20T13:12:33.615Z,19.85
2018-08-20T13:15:02.681Z,21.52
2018-08-20T13:17:31.724Z,20.97
2018-08-20T13:20:00.796Z,21.28
2018-08-20T13:22:29.970Z,22.54
2018-08-20T13:24:59.084Z,27.09
2018-08-20T13:27:28.122Z,25.19
2018-08-20T13:32:33.050Z,20.96
2018-08-20T13:35:02.420Z,19.97
2018-08-20T13:37:31.529Z,19.32
2018-08-20T13:40:00.585Z,19.07
2018-08-20T13:42:29.766Z,20.70
2018-08-20T13:44:58.840Z,23.75
2018-08-20T13:50:03.730Z,23.55
2018-08-20T13:52:32.783Z,23.22
2018-08-20T13:55:07.025Z,21.22
2018-08-20T13:57:36.077Z,21.24
2018-08-20T14:00:05.197Z,19.45
2018-08-20T14:02:34.298Z,21.18
2018-08-20T14:05:03.345Z,22.45
2018-08-20T14:07:33.333Z,20.24
2018-08-20T14:10:03.364Z,18.98
2018-08-20T14:12:32.502Z,19.73
2018-08-20T14:15:01.541Z,18.59
2018-08-20T14:17:30.606Z,21.04
2018-08-20T14:19:59.664Z,21.74
2018-08-20T14:25:04.507Z,22.48
2018-08-20T14:30:12.361Z,20.69
2018-08-20T14:32:41.438Z,21.48
2018-08-20T14:35:10.493Z,20.82
2018-08-20T14:37:39.580Z,22.04
2018-08-20T14:40:09.662Z,20.04
2018-08-20T14:45:14.423Z,20.68
2018-08-20T14:47:43.557Z,21.37
2018-08-20T14:50:12.579Z,22.96
2018-08-20T14:52:41.929Z,26.33
2018-08-20T14:55:10.989Z,27.98
2018-08-20T14:57:43.666Z,26.72
2018-08-20T15:00:12.714Z,25.46
2018-08-20T15:02:41.791Z,20.88
2018-08-20T15:05:10.907Z,21.65
2018-08-20T15:07:39.970Z,21.16
2018-08-20T15:12:44.839Z,22.54
2018-08-20T15:15:13.994Z,21.17
2018-08-20T15:17:42.932Z,20.80
2018-08-20T15:20:12.006Z,20.81
2018-08-20T15:25:16.922Z,25.16
2018-08-20T15:27:45.969Z,23.30
2018-08-20T15:32:50.923Z,19.53
2018-08-20T15:35:19.956Z,19.33
2018-08-20T15:37:49.061Z,20.81
2018-08-20T15:40:18.281Z,22.35
2018-08-20T15:42:47.335Z,20.97
2018-08-20T15:45:16.409Z,20.80
2018-08-20T15:47:45.491Z,20.53
2018-08-20T15:50:14.545Z,20.02
2018-08-20T15:55:20.484Z,20.97
2018-08-20T15:57:49.558Z,21.26
2018-08-20T16:00:18.622Z,21.79
2018-08-20T16:02:47.722Z,23.14
2018-08-20T16:05:17.813Z,23.35
2018-08-20T16:07:46.857Z,23.71
2018-08-20T16:10:15.905Z,24.23
2018-08-20T16:12:44.976Z,23.86
2018-08-20T16:15:14.025Z,26.34
2018-08-20T16:20:19.401Z,29.81
2018-08-20T16:22:48.453Z,31.07
2018-08-20T16:25:17.504Z,31.44
2018-08-20T16:27:58.987Z,30.18
2018-08-20T16:30:29.529Z,30.52
2018-08-20T16:33:12.873Z,31.03
2018-08-20T16:35:54.490Z,31.34
2018-08-20T16:38:26.086Z,31.56
2018-08-20T16:41:09.920Z,32.66
2018-08-20T16:43:39.621Z,33.49
2018-08-20T16:48:44.540Z,37.57
2018-08-20T16:51:13.598Z,36.34
2018-08-20T16:53:42.734Z,38.21
2018-08-20T16:58:48.844Z,36.78
2018-08-20T17:01:26.250Z,35.58
2018-08-20T17:03:56.639Z,35.68
2018-08-20T17:06:25.887Z,39.73
2018-08-20T17:11:30.717Z,37.36
2018-08-20T17:13:59.820Z,37.69
2018-08-20T17:16:28.972Z,39.98
2018-08-20T17:18:58.000Z,41.93
2018-08-20T17:21:27.073Z,41.59
2018-08-20T17:26:31.982Z,40.33
2018-08-20T17:29:01.263Z,40.17
2018-08-20T17:31:30.398Z,41.51
2018-08-20T17:36:35.233Z,41.60
2018-08-20T17:39:04.297Z,43.22
2018-08-20T17:41:33.341Z,43.02
2018-08-20T17:44:02.506Z,44.43
2018-08-20T17:46:31.598Z,45.46
2018-08-20T17:49:01.177Z,45.67
2018-08-20T17:51:30.318Z,46.30
2018-08-20T17:53:59.353Z,45.14
2018-08-20T17:56:28.400Z,45.12
2018-08-20T18:04:10.538Z,46.57
2018-08-20T18:06:41.593Z,48.49
2018-08-20T18:09:10.636Z,47.42
2018-08-20T18:14:15.471Z,48.29
2018-08-20T18:16:44.505Z,49.75
2018-08-20T18:19:14.549Z,50.45
2018-08-20T18:24:19.443Z,52.27
2018-08-20T18:26:48.504Z,52.01
2018-08-20T18:31:53.412Z,55.00
2018-08-20T18:34:22.453Z,56.63
2018-08-20T18:39:27.350Z,56.09
2018-08-20T18:41:56.403Z,56.14
2018-08-20T18:44:25.461Z,58.44
2018-08-20T18:46:54.534Z,59.34
2018-08-20T18:49:23.673Z,56.39
2018-08-20T18:51:52.706Z,58.11
2018-08-20T18:56:57.591Z,58.81
2018-08-20T19:02:02.342Z,56.06
2018-08-20T19:04:31.389Z,58.41
2018-08-20T19:07:00.589Z,57.53
2018-08-20T19:09:31.541Z,59.00
2018-08-20T19:12:00.597Z,58.50
2018-08-20T19:14:29.731Z,57.73
2018-08-20T19:16:58.830Z,55.86
2018-08-20T19:22:03.633Z,55.60
2018-08-20T19:24:32.670Z,55.15
2018-08-20T19:29:37.472Z,56.16
2018-08-20T19:32:06.560Z,58.80
2018-08-20T19:37:11.422Z,60.34
2018-08-20T19:39:40.510Z,62.11
2018-08-20T19:42:09.556Z,60.46
2018-08-20T19:44:38.624Z,62.53
2018-08-20T19:49:43.373Z,60.27
2018-08-20T19:52:12.461Z,61.28
2018-08-20T19:54:42.457Z,62.24
2018-08-20T19:57:11.501Z,61.65
2018-08-20T19:59:40.554Z,62.42
2018-08-20T20:04:46.589Z,61.22
2018-08-20T20:07:15.663Z,63.40
2018-08-20T20:09:44.739Z,63.90
2018-08-20T20:12:13.836Z,63.12
2018-08-20T20:14:42.832Z,63.87
2018-08-20T20:17:11.893Z,63.57
2018-08-20T20:19:40.961Z,64.16
2018-08-20T20:22:11.994Z,63.38
2018-08-20T20:24:43.001Z,62.50
2018-08-20T20:27:14.341Z,61.76
2018-08-20T20:32:24.266Z,62.51
2018-08-20T20:34:55.065Z,63.16
2018-08-20T20:37:26.197Z,64.05
2018-08-20T20:39:55.918Z,65.09
2018-08-20T20:42:26.606Z,65.45
2018-08-20T20:44:57.055Z,65.62
2018-08-20T20:47:27.663Z,66.66
2018-08-20T20:52:34.055Z,68.57
2018-08-20T20:55:04.987Z,67.54
2018-08-20T21:02:48.001Z,68.55
2018-08-20T21:05:18.947Z,69.37
2018-08-20T21:07:50.302Z,70.87
2018-08-20T21:10:20.795Z,73.99
2018-08-20T21:12:50.568Z,74.55
2018-08-20T21:15:20.190Z,75.20
2018-08-20T21:17:50.231Z,74.38
2018-08-20T21:20:19.829Z,72.92
2018-08-20T21:22:49.476Z,68.64
2018-08-20T21:25:20.199Z,69.50
2018-08-20T21:27:49.954Z,68.28
2018-08-20T21:30:19.208Z,69.14
2018-08-20T21:32:48.459Z,70.10
2018-08-20T21:35:18.377Z,70.28
2018-08-20T21:37:49.932Z,72.23
2018-08-20T21:40:19.446Z,72.10
2018-08-20T21:42:50.698Z,73.87
2018-08-20T21:45:21.148Z,74.57
2018-08-20T21:47:52.778Z,71.54
2018-08-20T21:50:21.901Z,73.80
2018-08-20T21:52:50.944Z,70.31
2018-08-20T21:55:20.038Z,72.96
2018-08-20T21:57:50.200Z,75.87
2018-08-20T22:00:19.302Z,73.79
2018-08-20T22:08:01.974Z,71.77
2018-08-20T22:10:31.040Z,73.57
2018-08-20T22:13:00.077Z,73.87
2018-08-20T22:15:29.162Z,71.63
2018-08-20T22:20:33.938Z,72.74
2018-08-20T22:25:38.780Z,74.23
2018-08-20T22:28:07.828Z,76.44
2018-08-20T22:30:36.888Z,76.25
2018-08-20T22:33:06.025Z,77.34
2018-08-20T22:35:35.253Z,77.96
2018-08-20T22:40:40.037Z,77.29
2018-08-20T22:43:10.029Z,77.19
2018-08-20T22:45:39.256Z,78.73
2018-08-20T22:48:08.324Z,78.93
2018-08-20T22:50:37.405Z,79.25
2018-08-20T22:53:06.485Z,80.38
2018-08-20T22:55:35.551Z,79.76
2018-08-20T22:58:05.551Z,79.62
2018-08-20T23:00:34.616Z,79.03
2018-08-20T23:03:03.704Z,79.61
2018-08-20T23:05:32.756Z,79.59
2018-08-20T23:08:01.818Z,78.23
2018-08-20T23:10:30.887Z,77.14
2018-08-20T23:12:59.913Z,77.97
2018-08-20T23:15:28.958Z,76.41
2018-08-20T23:17:59.914Z,77.13
2018-08-20T23:20:28.953Z,78.23
2018-08-20T23:22:58.107Z,80.85
2018-08-20T23:25:27.140Z,82.54
2018-08-20T23:27:56.244Z,82.81
2018-08-20T23:30:25.286Z,82.15
2018-08-20T23:32:54.353Z,82.89
2018-08-20T23:35:23.425Z,82.25
2018-08-20T23:37:52.612Z,78.41
2018-08-20T23:40:21.677Z,80.91
2018-08-20T23:45:26.490Z,82.25
2018-08-20T23:47:55.679Z,80.05
2018-08-20T23:50:24.738Z,80.99
2018-08-20T23:52:53.893Z,82.59
2018-08-20T23:55:22.917Z,81.05
2018-08-20T23:57:53.031Z,80.15
